createdAt,value
2018-11-04T00:00:03.215Z,83.10
2018-11-04T00:02:34.165Z,82.43
2018-11-04T00:05:04.136Z,81.98
2018-11-04T00:07:34.834Z,80.73
2018-11-04T00:10:06.319Z,81.00
2018-11-04T00:12:36.320Z,81.71
2018-11-04T00:15:06.398Z,82.84
2018-11-04T00:17:43.240Z,84.50
2018-11-04T00:20:14.343Z,82.98
2018-11-04T00:22:46.661Z,85.22
2018-11-04T00:25:18.690Z,85.89
2018-11-04T00:27:49.993Z,85.61
2018-11-04T00:30:20.177Z,86.47
2018-11-04T00:32:52.079Z,86.86
2018-11-04T00:35:22.145Z,84.93
2018-11-04T00:37:52.819Z,84.45
2018-11-04T00:40:24.317Z,84.90
2018-11-04T00:42:55.200Z,86.02
2018-11-04T00:45:25.295Z,84.81
2018-11-04T00:47:55.450Z,84.97
2018-11-04T00:50:25.456Z,82.59
2018-11-04T00:52:55.589Z,85.07
2018-11-04T00:55:25.621Z,83.40
2018-11-04T00:57:55.582Z,83.21
2018-11-04T01:00:28.263Z,84.04
2018-11-04T01:03:05.411Z,85.56
2018-11-04T01:05:35.542Z,84.52
2018-11-04T01:08:11.448Z,85.24
2018-11-04T01:10:41.914Z,84.29
2018-11-04T01:13:14.661Z,83.90
2018-11-04T01:15:46.324Z,84.84
2018-11-04T01:18:16.331Z,83.90
2018-11-04T01:20:57.836Z,84.57
2018-11-04T01:23:27.971Z,86.37
2018-11-04T01:25:58.016Z,85.38
2018-11-04T01:28:28.007Z,85.45
2018-11-04T01:30:57.985Z,85.43
2018-11-04T01:33:28.696Z,86.13
2018-11-04T01:35:59.409Z,85.26
2018-11-04T01:38:29.415Z,84.17
2018-11-04T01:40:59.419Z,83.92
2018-11-04T01:43:29.903Z,83.73
2018-11-04T01:45:59.917Z,84.81
2018-11-04T01:48:32.720Z,84.25
2018-11-04T01:51:02.839Z,84.78
2018-11-04T01:53:33.479Z,85.53
2018-11-04T01:56:06.395Z,84.52
2018-11-04T01:58:36.408Z,83.45
2018-11-04T02:01:06.943Z,82.22
2018-11-04T02:03:41.568Z,83.07
2018-11-04T02:06:11.956Z,85.19
2018-11-04T02:08:43.488Z,85.54
2018-11-04T02:11:13.540Z,85.77
2018-11-04T02:13:44.232Z,85.50
2018-11-04T02:16:16.932Z,86.43
2018-11-04T02:18:53.852Z,86.28
2018-11-04T02:21:25.027Z,87.11
2018-11-04T02:23:57.528Z,87.36
2018-11-04T02:26:28.443Z,86.45
2018-11-04T02:29:03.113Z,86.43
2018-11-04T02:31:36.885Z,86.29
2018-11-04T02:34:06.957Z,84.71
2018-11-04T02:36:37.560Z,85.42
2018-11-04T02:39:09.246Z,85.79
2018-11-04T02:41:39.277Z,85.06
2018-11-04T02:44:09.595Z,85.16
2018-11-04T02:46:40.332Z,85.13
2018-11-04T02:49:10.728Z,85.20
2018-11-04T02:51:42.059Z,86.24
2018-11-04T02:54:12.042Z,85.34
2018-11-04T02:56:42.478Z,86.51
2018-11-04T02:59:14.012Z,86.11
2018-11-04T03:01:44.426Z,86.74
2018-11-04T03:04:14.319Z,86.09
2018-11-04T03:06:46.223Z,86.37
2018-11-04T03:09:16.753Z,86.33
2018-11-04T03:11:48.222Z,88.17
2018-11-04T03:14:18.293Z,87.71
2018-11-04T03:16:49.760Z,87.58
2018-11-04T03:19:20.358Z,85.71
2018-11-04T03:21:50.292Z,87.06
2018-11-04T03:24:20.768Z,86.24
2018-11-04T03:26:52.259Z,85.86
2018-11-04T03:29:22.270Z,85.54
2018-11-04T03:31:52.284Z,85.83
2018-11-04T03:34:22.341Z,85.89
2018-11-04T03:36:52.315Z,84.71
2018-11-04T03:39:22.867Z,85.22
2018-11-04T03:41:53.506Z,85.92
2018-11-04T03:44:23.447Z,87.33
2018-11-04T03:46:53.404Z,87.05
2018-11-04T03:49:23.535Z,87.04
2018-11-04T03:51:53.483Z,86.40
2018-11-04T03:54:23.687Z,85.99
2018-11-04T03:56:53.942Z,86.57
2018-11-04T03:59:23.879Z,86.21
2018-11-04T04:01:54.070Z,88.09
2018-11-04T04:04:24.098Z,86.73
2018-11-04T04:06:54.361Z,87.21
2018-11-04T04:09:24.410Z,88.71
2018-11-04T04:11:54.463Z,86.04
2018-11-04T04:14:24.423Z,85.70
2018-11-04T04:16:56.554Z,84.62
2018-11-04T04:19:26.689Z,85.25
2018-11-04T04:21:56.968Z,84.66
2018-11-04T04:24:26.936Z,85.38
2018-11-04T04:26:56.982Z,84.76
2018-11-04T04:29:27.186Z,85.04
2018-11-04T04:31:57.378Z,86.33
2018-11-04T04:34:27.762Z,86.00
2018-11-04T04:36:57.728Z,86.47
2018-11-04T04:39:28.050Z,86.89
2018-11-04T04:41:58.010Z,86.16
2018-11-04T04:44:28.278Z,86.53
2018-11-04T04:46:58.887Z,86.33
2018-11-04T04:49:29.017Z,85.10
2018-11-04T04:51:58.977Z,86.40
2018-11-04T04:54:29.303Z,86.23
2018-11-04T04:56:59.976Z,85.10
2018-11-04T04:59:30.304Z,86.12
2018-11-04T05:02:00.332Z,85.88
2018-11-04T05:04:30.336Z,85.96
2018-11-04T05:07:00.322Z,85.29
2018-11-04T05:09:30.260Z,84.58
2018-11-04T05:12:00.233Z,85.72
2018-11-04T05:14:30.484Z,85.86
2018-11-04T05:17:00.483Z,86.21
2018-11-04T05:19:30.484Z,85.85
2018-11-04T05:22:00.731Z,84.92
2018-11-04T05:24:30.992Z,88.21
2018-11-04T05:27:01.050Z,86.87
2018-11-04T05:29:31.293Z,86.72
2018-11-04T05:32:01.542Z,85.39
2018-11-04T05:34:31.600Z,86.85
2018-11-04T05:37:01.925Z,86.33
2018-11-04T05:39:32.122Z,85.40
2018-11-04T05:42:02.358Z,85.70
2018-11-04T05:44:32.701Z,84.55
2018-11-04T05:47:02.849Z,84.85
2018-11-04T05:49:32.963Z,88.58
2018-11-04T05:52:03.078Z,87.07
2018-11-04T05:54:33.206Z,86.69
2018-11-04T05:57:03.407Z,85.98
2018-11-04T05:59:33.402Z,86.77
2018-11-04T06:02:03.364Z,88.08
2018-11-04T06:04:33.642Z,88.05
2018-11-04T06:07:03.670Z,91.23
2018-11-04T06:09:33.709Z,89.89
2018-11-04T06:12:03.813Z,88.49
2018-11-04T06:14:33.755Z,89.55
2018-11-04T06:17:03.919Z,89.47
2018-11-04T06:19:33.973Z,88.74
2018-11-04T06:22:03.927Z,90.25
2018-11-04T06:24:34.203Z,90.57
2018-11-04T06:27:04.855Z,91.25
2018-11-04T06:29:34.903Z,91.27
2018-11-04T06:32:05.324Z,89.99
2018-11-04T06:34:35.341Z,89.71
2018-11-04T06:37:06.369Z,89.47
2018-11-04T06:39:36.470Z,89.65
2018-11-04T06:42:06.748Z,88.94
2018-11-04T06:44:36.849Z,89.20
2018-11-04T06:47:07.066Z,88.39
2018-11-04T06:49:45.650Z,91.82
2018-11-04T06:52:19.020Z,90.37
2018-11-04T06:54:49.023Z,89.80
2018-11-04T06:57:18.940Z,90.44
2018-11-04T07:02:38.241Z,90.67
2018-11-04T07:05:13.757Z,92.97
2018-11-04T07:07:43.813Z,93.49
2018-11-04T07:10:15.117Z,92.11
2018-11-04T07:12:46.034Z,92.33
2018-11-04T07:15:16.361Z,92.91
2018-11-04T07:17:46.855Z,93.05
2018-11-04T07:20:24.048Z,92.55
2018-11-04T07:22:54.156Z,93.14
2018-11-04T07:25:27.853Z,92.12
2018-11-04T07:27:58.150Z,90.86
2018-11-04T07:30:28.367Z,91.04
2018-11-04T07:33:01.035Z,92.93
2018-11-04T07:35:30.917Z,92.98
2018-11-04T07:38:00.812Z,92.06
2018-11-04T07:40:30.805Z,93.03
2018-11-04T07:43:00.832Z,93.04
2018-11-04T07:45:30.821Z,93.45
2018-11-04T07:48:01.047Z,93.34
2018-11-04T07:50:31.035Z,92.86
2018-11-04T07:53:01.210Z,93.15
2018-11-04T07:55:31.192Z,92.92
2018-11-04T07:58:01.283Z,93.41
2018-11-04T08:00:31.317Z,94.17
2018-11-04T08:03:01.348Z,94.86
2018-11-04T08:05:31.512Z,95.37
2018-11-04T08:08:01.606Z,95.11
2018-11-04T08:10:31.590Z,94.83
2018-11-04T08:13:01.562Z,94.87
2018-11-04T08:15:31.609Z,93.12
2018-11-04T08:18:01.642Z,95.61
2018-11-04T08:20:31.734Z,93.72
2018-11-04T08:23:01.834Z,93.56
2018-11-04T08:25:31.863Z,94.89
2018-11-04T08:28:01.917Z,93.94
2018-11-04T08:30:31.981Z,93.41
2018-11-04T08:33:01.858Z,93.41
2018-11-04T08:35:32.227Z,94.26
2018-11-04T08:38:02.399Z,93.05
2018-11-04T08:40:32.432Z,94.71
2018-11-04T08:43:02.381Z,94.91
2018-11-04T08:45:32.674Z,95.85
2018-11-04T08:48:02.849Z,95.57
2018-11-04T08:50:32.871Z,95.58
2018-11-04T08:53:02.873Z,96.61
2018-11-04T08:55:33.109Z,95.84
2018-11-04T08:58:03.200Z,96.12
2018-11-04T09:00:33.186Z,96.90
2018-11-04T09:03:03.352Z,96.79
2018-11-04T09:05:33.601Z,96.98
2018-11-04T09:11:12.364Z,97.10
2018-11-04T09:13:42.902Z,95.92
2018-11-04T09:16:13.108Z,96.97
2018-11-04T09:18:44.374Z,96.43
2018-11-04T09:21:14.626Z,96.75
2018-11-04T09:23:44.830Z,96.20
2018-11-04T09:26:14.639Z,97.13
2018-11-04T09:28:55.094Z,96.62
2018-11-04T09:31:34.053Z,96.20
2018-11-04T09:34:04.565Z,96.22
2018-11-04T09:36:35.065Z,97.28
2018-11-04T09:39:06.792Z,97.01
2018-11-04T09:41:36.621Z,95.87
2018-11-04T09:44:07.242Z,96.10
2018-11-04T09:49:48.250Z,96.17
2018-11-04T09:52:18.319Z,96.49
2018-11-04T09:54:48.413Z,95.73
2018-11-04T09:57:18.474Z,96.51
2018-11-04T09:59:49.030Z,97.09
2018-11-04T10:02:19.134Z,95.96
2018-11-04T10:04:49.767Z,96.25
2018-11-04T10:07:20.302Z,95.87
2018-11-04T10:09:50.145Z,96.71
2018-11-04T10:12:20.209Z,95.67
2018-11-04T10:14:50.591Z,96.15
2018-11-04T10:17:20.750Z,95.75
2018-11-04T10:19:52.856Z,96.79
2018-11-04T10:22:46.565Z,97.36
2018-11-04T10:28:28.843Z,96.98
2018-11-04T10:45:51.183Z,95.64
2018-11-04T10:54:11.395Z,95.66
2018-11-04T10:56:41.543Z,93.78
2018-11-04T10:59:15.653Z,94.22
2018-11-04T11:01:51.205Z,93.95
2018-11-04T11:07:21.407Z,94.17
2018-11-04T11:10:03.645Z,94.87
2018-11-04T11:12:33.982Z,93.73
2018-11-04T11:15:04.110Z,95.09
2018-11-04T11:17:34.437Z,93.95
2018-11-04T11:23:00.835Z,93.81
2018-11-04T11:28:38.577Z,93.95
2018-11-04T11:31:08.764Z,94.58
2018-11-04T11:33:41.821Z,95.95
2018-11-04T11:36:18.024Z,96.32
2018-11-04T11:47:58.493Z,93.69
2018-11-04T11:53:16.756Z,93.26
2018-11-04T11:55:46.874Z,95.38
2018-11-04T11:58:17.312Z,95.82
2018-11-04T12:00:47.489Z,92.05
2018-11-04T12:03:36.946Z,92.57
2018-11-04T12:06:07.502Z,94.55
2018-11-04T12:08:39.528Z,93.79
2018-11-04T12:14:37.678Z,93.98
2018-11-04T12:21:33.682Z,93.72
2018-11-04T12:24:04.156Z,91.76
2018-11-04T12:46:28.162Z,91.62
2018-11-04T12:49:21.660Z,91.97
2018-11-04T12:55:48.846Z,93.19
2018-11-04T13:01:30.334Z,92.53
2018-11-04T13:07:17.763Z,94.33
2018-11-04T13:10:02.516Z,92.75
2018-11-04T13:12:33.203Z,90.86
2018-11-04T13:15:23.366Z,91.84
2018-11-04T13:17:55.724Z,91.38
2018-11-04T13:20:48.279Z,91.34
2018-11-04T13:23:19.305Z,89.73
2018-11-04T13:26:07.786Z,91.00
2018-11-04T13:28:40.522Z,92.19
2018-11-04T13:31:11.031Z,91.04
2018-11-04T13:33:44.179Z,90.74
2018-11-04T13:36:20.181Z,90.55
2018-11-04T13:38:52.593Z,90.82
2018-11-04T13:41:24.029Z,90.69
2018-11-04T13:47:00.609Z,91.75
2018-11-04T13:49:31.266Z,90.48
2018-11-04T13:55:11.576Z,90.45
2018-11-04T13:57:53.588Z,91.60
2018-11-04T14:00:23.826Z,91.47
2018-11-04T14:03:04.363Z,89.10
2018-11-04T14:06:55.338Z,89.41
2018-11-04T14:09:26.223Z,89.69
2018-11-04T14:12:02.618Z,90.43
2018-11-04T14:14:32.802Z,90.17
2018-11-04T14:17:02.725Z,90.27
2018-11-04T14:19:33.760Z,90.05
2018-11-04T14:24:52.471Z,89.42
2018-11-04T14:27:22.773Z,89.75
2018-11-04T14:29:58.559Z,92.28
2018-11-04T14:32:28.769Z,91.78
2018-11-04T14:35:09.972Z,91.52
2018-11-04T14:37:40.865Z,91.24
2018-11-04T14:40:13.144Z,91.29
2018-11-04T14:42:44.593Z,89.58
2018-11-04T14:45:17.079Z,89.88
2018-11-04T14:47:52.819Z,89.72
2018-11-04T14:50:31.339Z,90.70
2018-11-04T14:53:01.622Z,90.29
2018-11-04T14:55:31.564Z,90.66
2018-11-04T14:58:01.603Z,91.05
2018-11-04T15:00:41.051Z,92.25
2018-11-04T15:03:11.969Z,90.66
2018-11-04T15:06:01.123Z,91.02
2018-11-04T15:08:31.182Z,91.33
2018-11-04T15:11:01.245Z,90.67
2018-11-04T15:13:31.333Z,90.07
2018-11-04T15:16:01.523Z,91.27
2018-11-04T15:18:31.744Z,91.75
2018-11-04T15:21:07.195Z,91.25
2018-11-04T15:27:08.480Z,92.11
2018-11-04T15:33:21.958Z,91.66
2018-11-04T15:35:52.268Z,91.83
2018-11-04T15:38:23.401Z,91.94
2018-11-04T15:40:53.496Z,90.16
2018-11-04T15:43:51.815Z,90.90
2018-11-04T15:46:21.847Z,90.30
2018-11-04T15:48:52.181Z,90.53
2018-11-04T15:51:30.548Z,91.20
2018-11-04T15:54:00.597Z,91.95
2018-11-04T15:56:30.881Z,91.60
2018-11-04T15:59:19.078Z,91.75
2018-11-04T16:01:49.026Z,91.65
2018-11-04T16:04:19.046Z,91.58
2018-11-04T16:06:49.194Z,91.49
2018-11-04T16:09:19.973Z,91.87
2018-11-04T16:11:49.862Z,91.50
2018-11-04T16:14:20.003Z,90.52
2018-11-04T16:16:50.074Z,90.68
2018-11-04T16:22:04.782Z,90.36
2018-11-04T16:24:34.740Z,89.61
2018-11-04T16:27:04.751Z,90.73
2018-11-04T16:29:35.882Z,90.89
2018-11-04T16:38:18.277Z,90.85
2018-11-04T16:40:48.626Z,91.30
2018-11-04T16:43:18.599Z,91.37
2018-11-04T16:45:50.759Z,91.52
2018-11-04T16:48:26.689Z,90.84
2018-11-04T16:50:56.972Z,90.75
2018-11-04T16:53:26.924Z,91.11
2018-11-04T16:55:57.026Z,91.37
2018-11-04T16:58:26.918Z,90.55
2018-11-04T17:01:03.368Z,90.87
2018-11-04T17:03:34.083Z,90.96
2018-11-04T17:06:03.932Z,91.30
2018-11-04T17:08:34.219Z,91.43
2018-11-04T17:11:04.193Z,90.98
2018-11-04T17:13:53.380Z,91.56
2018-11-04T17:16:53.574Z,91.50
2018-11-04T17:19:25.389Z,91.69
2018-11-04T17:21:55.496Z,91.80
2018-11-04T17:24:25.607Z,91.88
2018-11-04T17:27:22.059Z,91.32
2018-11-04T17:33:14.091Z,91.72
2018-11-04T17:35:44.282Z,91.68
2018-11-04T17:41:18.975Z,91.16
2018-11-04T17:46:27.895Z,91.86
2018-11-04T17:48:57.820Z,91.51
2018-11-04T17:51:27.751Z,91.31
2018-11-04T17:53:57.738Z,91.81
2018-11-04T17:56:27.762Z,91.33
2018-11-04T17:59:08.036Z,91.88
2018-11-04T18:01:38.195Z,92.18
2018-11-04T18:04:08.201Z,92.01
2018-11-04T18:06:38.376Z,92.24
2018-11-04T18:09:10.016Z,92.34
2018-11-04T18:11:40.481Z,92.43
2018-11-04T18:14:49.522Z,92.04
2018-11-04T18:17:28.144Z,92.49
2018-11-04T18:19:58.243Z,92.59
2018-11-04T18:22:28.163Z,92.47
2018-11-04T18:24:58.908Z,91.65
2018-11-04T18:27:49.906Z,91.70
2018-11-04T18:30:25.366Z,91.98
2018-11-04T18:32:55.454Z,92.05
2018-11-04T18:35:26.317Z,91.94
2018-11-04T18:38:12.984Z,91.90
2018-11-04T18:40:47.031Z,91.67
2018-11-04T18:55:26.543Z,91.44
2018-11-04T19:00:47.162Z,91.51
2018-11-04T19:03:17.368Z,91.52
2018-11-04T19:05:47.393Z,91.60
2018-11-04T19:08:23.434Z,91.30
2018-11-04T19:10:53.805Z,91.59
2018-11-04T19:13:23.916Z,92.33
2018-11-04T19:15:54.141Z,91.97
2018-11-04T19:18:41.865Z,92.57
2018-11-04T19:21:20.803Z,92.20
2018-11-04T19:23:51.284Z,92.17
2018-11-04T19:26:22.235Z,92.15
2018-11-04T19:28:52.941Z,92.17
2018-11-04T19:31:23.926Z,92.95
2018-11-04T19:33:57.143Z,92.21
2018-11-04T19:36:27.707Z,93.10
2018-11-04T19:38:57.805Z,93.80
2018-11-04T19:41:27.851Z,93.15
2018-11-04T19:44:04.808Z,93.50
2018-11-04T19:46:34.849Z,93.44
2018-11-04T19:49:05.492Z,92.82
2018-11-04T19:51:36.235Z,92.91
2018-11-04T19:54:06.883Z,92.83
2018-11-04T19:56:36.971Z,93.98
2018-11-04T19:59:07.036Z,93.47
2018-11-04T20:01:37.030Z,94.08
2018-11-04T20:04:28.008Z,93.85
2018-11-04T20:06:58.089Z,93.62
2018-11-04T20:09:30.097Z,93.74
2018-11-04T20:12:01.032Z,92.32
2018-11-04T20:14:31.949Z,93.56
2018-11-04T20:17:03.549Z,93.20
2018-11-04T20:19:38.867Z,94.22
2018-11-04T20:22:08.765Z,94.31
2018-11-04T20:24:43.760Z,93.56
2018-11-04T20:27:13.623Z,94.15
2018-11-04T20:29:43.645Z,95.02
2018-11-04T20:32:18.565Z,94.61
2018-11-04T20:34:51.208Z,93.95
2018-11-04T20:37:24.527Z,94.42
2018-11-04T20:40:00.862Z,93.56
2018-11-04T20:42:31.997Z,92.89
2018-11-04T20:45:03.041Z,92.58
2018-11-04T20:47:38.023Z,93.30
2018-11-04T20:50:13.877Z,91.72
2018-11-04T20:52:44.590Z,92.46
2018-11-04T20:55:15.739Z,94.39
2018-11-04T20:57:47.667Z,93.85
2018-11-04T21:00:19.534Z,93.03
2018-11-04T21:05:50.316Z,92.65
2018-11-04T21:08:20.547Z,92.14
2018-11-04T21:10:50.771Z,93.73
2018-11-04T21:13:21.007Z,92.28
2018-11-04T21:15:50.998Z,92.89
2018-11-04T21:18:21.016Z,93.57
2018-11-04T21:20:51.008Z,94.31
2018-11-04T21:23:21.068Z,93.56
2018-11-04T21:25:52.024Z,92.26
2018-11-04T21:28:22.035Z,93.05
2018-11-04T21:31:07.900Z,92.99
2018-11-04T21:33:39.797Z,93.38
2018-11-04T21:36:10.069Z,93.45
2018-11-04T21:38:41.127Z,93.42
2018-11-04T21:41:11.246Z,93.10
2018-11-04T21:43:43.685Z,93.17
2018-11-04T21:46:13.753Z,91.61
2018-11-04T21:48:57.396Z,91.13
2018-11-04T21:51:27.635Z,92.21
2018-11-04T21:53:58.815Z,91.81
2018-11-04T21:56:28.906Z,92.03
2018-11-04T21:58:58.833Z,92.23
2018-11-04T22:01:28.772Z,92.55
2018-11-04T22:04:02.147Z,90.59
2018-11-04T22:06:31.847Z,92.17
2018-11-04T22:22:41.572Z,92.37
2018-11-04T22:25:27.398Z,91.88
2018-11-04T22:27:57.428Z,90.55
2018-11-04T22:30:44.841Z,90.61
2018-11-04T22:33:15.215Z,90.93
2018-11-04T22:38:54.940Z,91.50
2018-11-04T22:41:26.464Z,91.17
2018-11-04T22:43:56.734Z,91.52
2018-11-04T22:46:26.721Z,90.53
2018-11-04T22:52:09.182Z,91.72
2018-11-04T22:54:39.394Z,91.23
2018-11-04T22:57:09.599Z,90.53
2018-11-04T23:02:40.051Z,90.47
2018-11-04T23:05:15.006Z,89.87
2018-11-04T23:07:45.715Z,89.80
2018-11-04T23:10:16.013Z,91.55
2018-11-04T23:12:46.060Z,91.84
2018-11-04T23:15:30.186Z,92.24
2018-11-04T23:21:06.673Z,90.57
2018-11-04T23:23:36.668Z,91.15
2018-11-04T23:26:07.538Z,91.18
2018-11-04T23:28:50.284Z,90.73
2018-11-04T23:31:48.164Z,91.69
2018-11-04T23:34:18.369Z,91.70
2018-11-04T23:36:48.392Z,92.02
2018-11-04T23:39:27.027Z,90.88
2018-11-04T23:42:21.209Z,90.33
2018-11-04T23:44:51.445Z,91.02
2018-11-04T23:50:30.520Z,90.81
2018-11-04T23:53:00.448Z,91.60
2018-11-04T23:55:30.648Z,91.81
2018-11-04T23:58:16.407Z,91.45
